createdAt,value
2023-04-25T00:04:10.845Z,70.30
2023-04-25T00:09:14.477Z,70.10
2023-04-25T00:14:17.839Z,70.10
2023-04-25T00:19:22.571Z,70.30
2023-04-25T00:24:25.944Z,70.20
2023-04-25T00:29:29.317Z,70.40
2023-04-25T00:34:34.301Z,70.40
2023-04-25T00:39:37.800Z,71.20
2023-04-25T00:44:41.861Z,70.50
2023-04-25T00:49:47.337Z,70.70
2023-04-25T00:54:50.780Z,70.90
2023-04-25T00:59:55.254Z,71.70
2023-04-25T01:05:00.402Z,71.00
2023-04-25T01:10:04.854Z,71.10
2023-04-25T01:15:09.321Z,71.30
2023-04-25T01:20:16.913Z,71.40
2023-04-25T01:25:23.285Z,71.30
2023-04-25T01:30:28.441Z,71.20
2023-04-25T01:35:33.477Z,71.10
2023-04-25T01:40:42.826Z,70.90
2023-04-25T01:45:46.442Z,70.80
2023-04-25T01:50:49.985Z,70.60
2023-04-25T01:55:54.767Z,70.60
2023-04-25T02:01:00.089Z,70.60
2023-04-25T02:06:09.352Z,71.00
2023-04-25T02:11:17.942Z,70.60
2023-04-25T02:16:31.718Z,70.50
2023-04-25T02:21:37.587Z,70.60
2023-04-25T02:26:42.349Z,70.50
2023-04-25T02:31:46.309Z,70.40
2023-04-25T02:36:51.654Z,70.50
2023-04-25T02:41:56.622Z,70.60
2023-04-25T02:47:00.236Z,70.70
2023-04-25T02:52:06.463Z,70.90
2023-04-25T02:57:11.710Z,71.20
2023-04-25T03:02:15.708Z,71.10
2023-04-25T03:07:19.838Z,71.40
2023-04-25T03:12:27.137Z,71.20
2023-04-25T03:17:31.006Z,71.10
2023-04-25T03:22:35.749Z,71.20
2023-04-25T03:27:40.613Z,71.10
2023-04-25T03:32:44.621Z,71.10
2023-04-25T03:37:51.950Z,71.20
2023-04-25T03:43:02.461Z,71.20
2023-04-25T03:48:06.782Z,70.90
2023-04-25T03:53:10.764Z,71.00
2023-04-25T03:58:37.756Z,71.00
2023-04-25T04:03:41.750Z,71.10
2023-04-25T04:08:45.942Z,71.70
2023-04-25T04:13:50.955Z,70.80
2023-04-25T04:18:56.298Z,70.90
2023-04-25T04:24:01.027Z,70.70
2023-04-25T04:29:09.601Z,70.50
2023-04-25T04:34:18.842Z,70.60
2023-04-25T04:39:22.964Z,70.50
2023-04-25T04:44:40.138Z,70.70
2023-04-25T04:50:00.584Z,70.60
2023-04-25T04:55:15.738Z,70.70
2023-04-25T05:00:41.293Z,70.70
2023-04-25T05:06:03.341Z,70.90
2023-04-25T05:11:13.944Z,71.10
2023-04-25T05:16:48.116Z,72.00
2023-04-25T05:22:00.881Z,71.90
2023-04-25T05:27:15.801Z,71.90
2023-04-25T06:09:17.245Z,73.10
2023-04-25T06:14:21.745Z,72.90
2023-04-25T06:19:27.412Z,72.90
2023-04-25T06:24:32.466Z,72.80
2023-04-25T06:29:36.016Z,72.80
2023-04-25T06:34:39.466Z,72.80
2023-04-25T06:39:44.976Z,72.70
2023-04-25T06:44:48.482Z,72.70
2023-04-25T06:49:52.542Z,72.70
2023-04-25T06:54:58.511Z,73.20
2023-04-25T07:00:23.276Z,72.30
2023-04-25T07:05:29.054Z,71.80
2023-04-25T07:10:34.041Z,72.40
2023-04-25T07:15:37.572Z,71.90
2023-04-25T07:20:41.911Z,71.90
2023-04-25T07:25:46.738Z,72.00
2023-04-25T07:30:52.956Z,72.20
2023-04-25T07:35:56.817Z,71.60
2023-04-25T07:41:01.964Z,70.30
2023-04-25T07:46:06.155Z,69.60
2023-04-25T07:51:11.309Z,69.30
2023-04-25T07:56:16.606Z,69.20
2023-04-25T08:01:23.071Z,68.60
2023-04-25T08:06:39.185Z,68.40
2023-04-25T08:11:52.609Z,68.40
2023-04-25T08:17:02.131Z,69.30
2023-04-25T08:22:05.700Z,69.20
2023-04-25T08:27:22.534Z,68.70
2023-04-25T08:32:26.284Z,69.00
2023-04-25T08:37:46.500Z,67.40
2023-04-25T08:42:55.394Z,67.50
2023-04-25T08:48:00.195Z,67.90
2023-04-25T08:53:07.449Z,66.80
2023-04-25T08:58:13.236Z,67.90
2023-04-25T09:03:17.123Z,68.20
2023-04-25T09:08:21.130Z,68.80
2023-04-25T09:13:30.116Z,68.80
2023-04-25T09:18:57.976Z,68.90
2023-04-25T09:24:01.374Z,69.10
2023-04-25T09:29:09.959Z,69.20
2023-04-25T09:34:18.154Z,69.40
2023-04-25T09:39:31.469Z,69.40
2023-04-25T09:44:54.730Z,69.40
2023-04-25T09:49:59.375Z,69.60
2023-04-25T09:55:03.318Z,70.40
2023-04-25T10:00:14.142Z,69.70
2023-04-25T10:05:22.455Z,69.80
2023-04-25T10:10:31.470Z,70.00
2023-04-25T10:15:40.114Z,70.10
2023-04-25T10:20:44.009Z,70.20
2023-04-25T10:25:47.894Z,70.20
2023-04-25T10:31:03.717Z,70.30
2023-04-25T10:36:16.159Z,70.20
2023-04-25T10:41:22.221Z,70.20
2023-04-25T10:46:30.854Z,70.40
2023-04-25T10:56:45.793Z,70.90
2023-04-25T11:01:55.711Z,70.80
2023-04-25T11:07:21.900Z,70.60
2023-04-25T11:12:27.398Z,70.60
2023-04-25T11:17:32.964Z,71.80
2023-04-25T11:22:36.521Z,70.60
2023-04-25T11:27:53.079Z,70.00
2023-04-25T11:32:58.664Z,69.20
2023-04-25T11:38:02.100Z,68.40
2023-04-25T11:43:05.754Z,72.80
2023-04-25T11:48:10.933Z,71.70
2023-04-25T11:53:14.709Z,71.40
2023-04-25T11:58:18.058Z,71.80
2023-04-25T12:03:27.226Z,72.00
2023-04-25T12:08:30.752Z,72.00
2023-04-25T12:13:34.356Z,71.90
2023-04-25T12:18:39.948Z,71.90
2023-04-25T12:23:44.330Z,71.90
2023-04-25T12:28:49.430Z,71.80
2023-04-25T12:33:54.430Z,71.70
2023-04-25T12:38:57.954Z,71.70
2023-04-25T12:44:01.329Z,71.70
2023-04-25T12:49:17.729Z,72.30
2023-04-25T12:54:22.309Z,72.20
2023-04-25T12:59:25.694Z,72.20
2023-04-25T13:04:30.777Z,72.00
2023-04-25T13:09:34.468Z,72.00
2023-04-25T13:14:37.806Z,71.90
2023-04-25T13:19:42.593Z,71.80
2023-04-25T13:24:45.926Z,72.50
2023-04-25T13:29:49.279Z,71.60
2023-04-25T13:34:55.038Z,71.60
2023-04-25T13:39:59.593Z,72.00
2023-04-25T13:45:03.757Z,72.00
2023-04-25T13:50:10.725Z,71.90
2023-04-25T13:55:14.148Z,71.90
2023-04-25T14:00:19.484Z,71.80
2023-04-25T14:05:24.563Z,71.80
2023-04-25T14:10:28.075Z,71.80
2023-04-25T14:15:33.692Z,71.70
2023-04-25T14:20:38.568Z,71.60
2023-04-25T14:25:42.916Z,71.60
2023-04-25T14:30:46.400Z,71.60
2023-04-25T14:35:51.307Z,71.50
2023-04-25T14:40:55.063Z,71.60
2023-04-25T14:45:58.698Z,71.70
2023-04-25T14:51:03.619Z,71.90
2023-04-25T14:56:08.213Z,72.20
2023-04-25T15:01:12.367Z,72.80
2023-04-25T15:06:17.357Z,72.70
2023-04-25T15:11:23.112Z,73.60
2023-04-25T15:16:26.572Z,71.20
2023-04-25T15:21:32.464Z,69.30
2023-04-25T15:26:36.345Z,68.70
2023-04-25T15:31:39.925Z,67.80
2023-04-25T15:36:44.843Z,70.40
2023-04-25T15:41:49.131Z,71.40
2023-04-25T15:46:54.966Z,71.70
2023-04-25T15:51:59.990Z,69.50
2023-04-25T15:57:03.464Z,65.60
2023-04-25T16:02:07.066Z,63.90
2023-04-25T16:07:11.901Z,68.40
2023-04-25T16:12:15.565Z,68.50
2023-04-25T16:17:18.985Z,68.80
2023-04-25T16:22:23.802Z,69.20
2023-04-25T16:27:27.182Z,69.50
2023-04-25T16:32:30.806Z,69.80
2023-04-25T16:37:35.620Z,70.00
2023-04-25T16:42:39.039Z,70.40
2023-04-25T16:47:42.479Z,70.50
2023-04-25T16:52:47.335Z,70.50
2023-04-25T16:57:50.763Z,70.80
2023-04-25T17:02:54.296Z,70.60
2023-04-25T17:07:59.164Z,70.50
2023-04-25T17:13:02.555Z,70.50
2023-04-25T17:18:06.317Z,70.50
2023-04-25T17:23:11.627Z,69.90
2023-04-25T17:28:15.070Z,69.40
2023-04-25T17:33:18.534Z,69.30
2023-04-25T17:38:23.308Z,68.80
2023-04-25T17:43:27.671Z,68.30
2023-04-25T17:48:31.753Z,68.10
2023-04-25T17:53:36.898Z,67.80
2023-04-25T17:58:40.387Z,67.80
2023-04-25T18:03:45.666Z,68.00
2023-04-25T18:08:51.065Z,68.10
2023-04-25T18:13:54.585Z,68.40
2023-04-25T18:19:05.228Z,68.60
2023-04-25T18:24:12.429Z,68.70
2023-04-25T18:29:31.454Z,68.70
2023-04-25T18:34:36.268Z,68.80
2023-04-25T18:39:41.815Z,69.00
2023-04-25T18:44:46.356Z,68.80
2023-04-25T18:49:51.061Z,68.80
2023-04-25T18:54:55.837Z,65.30
2023-04-25T18:59:59.195Z,66.30
2023-04-25T19:05:02.914Z,66.50
2023-04-25T19:10:09.699Z,65.10
2023-04-25T19:15:13.304Z,64.40
2023-04-25T19:20:17.058Z,64.60
2023-04-25T19:25:22.434Z,64.90
2023-04-25T19:30:26.310Z,65.10
2023-04-25T19:35:32.540Z,65.10
2023-04-25T19:40:38.240Z,64.90
2023-04-25T19:45:41.611Z,66.10
2023-04-25T19:50:45.236Z,66.60
2023-04-25T19:55:49.973Z,66.70
2023-04-25T20:00:53.420Z,67.30
2023-04-25T20:05:57.199Z,67.80
2023-04-25T20:11:01.937Z,68.10
2023-04-25T20:16:05.776Z,67.80
2023-04-25T20:21:09.552Z,67.90
2023-04-25T20:26:14.624Z,68.00
2023-04-25T20:31:18.634Z,68.20
2023-04-25T20:36:22.050Z,68.40
2023-04-25T20:41:26.961Z,68.40
2023-04-25T20:46:30.743Z,68.60
2023-04-25T20:51:34.915Z,68.70
2023-04-25T20:56:40.161Z,68.90
2023-04-25T21:01:43.937Z,68.90
2023-04-25T21:06:47.594Z,69.40
2023-04-25T21:11:52.328Z,69.00
2023-04-25T21:16:58.447Z,68.80
2023-04-25T21:22:03.652Z,68.80
2023-04-25T21:27:08.841Z,68.90
2023-04-25T21:32:16.623Z,68.40
2023-04-25T21:37:19.862Z,68.20
2023-04-25T21:42:24.704Z,68.20
2023-04-25T21:47:28.174Z,68.40
2023-04-25T21:52:31.785Z,68.30
2023-04-25T21:57:36.583Z,68.50
2023-04-25T22:02:40.165Z,68.80
2023-04-25T22:07:43.963Z,69.10
2023-04-25T22:12:50.900Z,69.30
2023-04-25T22:17:55.983Z,69.60
2023-04-25T22:22:59.595Z,69.70
2023-04-25T22:28:04.349Z,69.80
2023-04-25T22:33:07.876Z,70.00
2023-04-25T22:38:11.387Z,70.10
2023-04-25T22:43:16.149Z,70.50
2023-04-25T22:48:19.601Z,70.40
2023-04-25T22:53:22.987Z,70.40
2023-04-25T22:58:27.825Z,70.60
2023-04-25T23:03:32.651Z,70.90
2023-04-25T23:08:36.193Z,70.80
2023-04-25T23:13:40.926Z,71.10
2023-04-25T23:18:44.361Z,71.30
2023-04-25T23:23:47.744Z,71.30
2023-04-25T23:28:52.849Z,71.20
2023-04-25T23:33:56.433Z,71.20
2023-04-25T23:39:01.996Z,71.10
2023-04-25T23:44:08.813Z,71.00
2023-04-25T23:49:12.192Z,71.00
2023-04-25T23:54:15.891Z,71.00
2023-04-25T23:59:20.999Z,71.00
